Time;durP1;ratioP1;P1;durP2;ratioP2;P2;SDS_P1;SDS_P2;PMS_P1;PMS_P2;Temp;Humidity;BMP_temperature;BMP_pressure;BME280_temperature;BME280_humidity;BME280_pressure;Samples;Min_cycle;Max_cycle;Signal;HPM_P1;HPM_P2
2021/10/20 00:01:46;;;;;;;12.30;6.13;;;;;;;13.81;81.91;98802.81;5051389;28;20224;-69
2021/10/20 00:04:11;;;;;;;11.52;5.80;;;;;;;13.82;81.52;98796.59;5065143;28;20028;-69
2021/10/20 00:06:37;;;;;;;12.23;6.93;;;;;;;13.85;81.81;98786.81;5064880;28;20080;-69
2021/10/20 00:09:04;;;;;;;14.10;6.63;;;;;;;13.72;82.46;98796.03;5065053;28;20067;-69
2021/10/20 00:11:30;;;;;;;14.45;6.45;;;;;;;13.72;82.56;98789.84;5065344;28;20070;-69
2021/10/20 00:13:56;;;;;;;14.70;6.85;;;;;;;13.85;82.00;98778.00;5064973;28;20028;-69
2021/10/20 00:16:22;;;;;;;12.00;6.47;;;;;;;13.79;82.54;98775.56;5064713;28;20049;-69
2021/10/20 00:18:49;;;;;;;13.30;6.45;;;;;;;13.82;82.50;98770.13;5064885;28;20029;-69
2021/10/20 00:21:20;;;;;;;14.77;6.40;;;;;;;13.72;82.54;98760.75;5064834;28;20092;-69
2021/10/20 00:23:46;;;;;;;11.17;6.63;;;;;;;13.72;83.24;98758.09;5064868;28;20017;-69
2021/10/20 00:26:11;;;;;;;13.80;6.10;;;;;;;13.74;83.12;98762.47;5064743;28;20088;-69
2021/10/20 00:28:37;;;;;;;12.02;6.35;;;;;;;13.69;83.81;98763.47;5064671;28;20021;-69
2021/10/20 00:31:02;;;;;;;15.07;6.88;;;;;;;13.78;83.07;98757.94;5048413;28;20039;-69
2021/10/20 00:33:28;;;;;;;21.60;6.55;;;;;;;13.77;83.28;98759.72;5043512;28;20024;-69
2021/10/20 00:35:53;;;;;;;8.25;5.68;;;;;;;13.80;83.22;98764.94;5044639;28;20017;-69
2021/10/20 00:38:19;;;;;;;11.05;6.25;;;;;;;13.81;83.11;98763.13;5044521;28;20293;-69
2021/10/20 00:40:44;;;;;;;12.95;6.57;;;;;;;13.89;83.07;98761.13;5044542;28;20257;-69
2021/10/20 00:43:09;;;;;;;11.15;6.43;;;;;;;13.82;82.94;98760.44;5044536;28;20068;-69
2021/10/20 00:45:35;;;;;;;10.38;5.93;;;;;;;13.74;83.42;98762.47;5044448;28;20021;-69
2021/10/20 00:48:01;;;;;;;11.70;7.18;;;;;;;13.70;83.71;98765.25;5044423;28;20022;-69
2021/10/20 00:50:27;;;;;;;12.68;6.97;;;;;;;13.70;83.59;98757.31;5044346;28;20071;-69
2021/10/20 00:52:52;;;;;;;10.95;6.57;;;;;;;13.64;83.67;98757.47;5044349;28;20127;-69
2021/10/20 00:55:17;;;;;;;13.27;5.72;;;;;;;13.53;84.22;98756.91;5043127;28;20025;-69
2021/10/20 00:57:46;;;;;;;12.77;6.55;;;;;;;13.42;84.62;98785.47;5047043;28;20033;-69
2021/10/20 01:00:12;;;;;;;15.05;6.93;;;;;;;13.35;85.19;98768.03;5064144;28;20040;-69
2021/10/20 01:02:39;;;;;;;11.68;7.55;;;;;;;13.33;85.13;98751.34;5063916;28;20078;-69
2021/10/20 01:05:06;;;;;;;13.73;6.65;;;;;;;13.26;85.21;98755.06;5063761;28;20048;-69
2021/10/20 01:07:32;;;;;;;12.82;6.80;;;;;;;13.34;85.26;98756.59;5064131;28;20331;-69
2021/10/20 01:09:57;;;;;;;12.57;6.30;;;;;;;13.25;85.85;98762.13;5062871;28;20021;-69
2021/10/20 01:12:23;;;;;;;10.15;6.53;;;;;;;13.18;86.09;98755.28;5063922;28;20029;-69
2021/10/20 01:14:48;;;;;;;12.45;6.55;;;;;;;13.12;86.00;98754.56;5063942;28;20047;-69
2021/10/20 01:17:14;;;;;;;13.82;7.38;;;;;;;13.06;86.53;98745.03;5063609;28;20041;-69
2021/10/20 01:19:41;;;;;;;11.18;6.07;;;;;;;12.93;87.06;98741.84;5063922;28;20244;-69
2021/10/20 01:22:08;;;;;;;14.48;7.63;;;;;;;12.97;87.48;98748.78;5063968;28;20091;-69
2021/10/20 01:24:34;;;;;;;14.32;7.53;;;;;;;12.86;87.77;98747.34;5063905;28;20074;-69
2021/10/20 01:26:59;;;;;;;11.77;6.75;;;;;;;12.76;87.86;98736.13;5063103;28;20021;-69
2021/10/20 01:29:25;;;;;;;11.18;7.13;;;;;;;12.66;88.38;98737.28;5063863;28;20029;-69
2021/10/20 01:31:56;;;;;;;12.13;7.20;;;;;;;12.61;88.47;98736.56;5063820;28;20163;-69
2021/10/20 01:34:23;;;;;;;14.60;7.88;;;;;;;12.62;88.65;98729.47;5063826;28;20060;-69
2021/10/20 01:36:50;;;;;;;14.75;7.18;;;;;;;12.58;88.68;98723.41;5063656;28;20091;-69
2021/10/20 01:39:17;;;;;;;13.55;7.22;;;;;;;12.56;88.95;98717.31;5063717;28;20028;-69
2021/10/20 01:41:43;;;;;;;16.95;7.93;;;;;;;12.49;89.39;98704.28;5063694;28;20211;-69
2021/10/20 01:44:08;;;;;;;14.68;7.97;;;;;;;12.63;89.51;98710.94;5062075;28;20320;-69
2021/10/20 01:46:34;;;;;;;16.30;8.63;;;;;;;12.66;89.63;98702.09;5063721;28;20017;-69
2021/10/20 01:48:59;;;;;;;14.05;7.40;;;;;;;12.65;89.09;98689.78;5062484;28;20016;-69
2021/10/20 01:51:25;;;;;;;15.38;6.70;;;;;;;12.64;89.07;98685.41;5063617;28;20021;-69
2021/10/20 01:53:52;;;;;;;12.75;7.40;;;;;;;12.57;89.98;98681.22;5056251;28;20029;-69
2021/10/20 01:56:17;;;;;;;15.82;8.15;;;;;;;12.65;89.57;98673.94;5043509;28;20026;-69
2021/10/20 01:58:44;;;;;;;11.48;7.22;;;;;;;12.76;89.71;98662.16;5043612;28;20028;-69
2021/10/20 02:01:09;;;;;;;11.50;7.90;;;;;;;12.86;89.94;98663.69;5043617;28;20025;-69
2021/10/20 02:03:37;;;;;;;17.02;8.05;;;;;;;12.89;89.63;98660.06;5043507;28;20021;-69
2021/10/20 02:06:04;;;;;;;15.07;7.82;;;;;;;13.02;89.04;98658.84;5043726;28;20051;-69
2021/10/20 02:08:29;;;;;;;16.27;7.90;;;;;;;13.03;88.96;98656.16;5043461;28;20021;-69
2021/10/20 02:10:55;;;;;;;18.38;7.45;;;;;;;13.06;89.08;98646.44;5043495;28;20339;-69
2021/10/20 02:13:20;;;;;;;14.27;7.97;;;;;;;13.02;89.26;98649.16;5043559;28;20029;-69
2021/10/20 02:15:46;;;;;;;15.00;8.48;;;;;;;13.14;88.97;98641.78;5045706;28;20052;-69
2021/10/20 02:18:11;;;;;;;13.65;7.72;;;;;;;13.24;88.86;98643.22;5047174;28;20104;-69
2021/10/20 02:20:37;;;;;;;12.95;7.60;;;;;;;13.27;88.63;98637.84;5047185;28;20059;-69
2021/10/20 02:23:03;;;;;;;15.43;8.05;;;;;;;13.22;88.54;98631.84;5061902;28;20020;-69
2021/10/20 02:25:28;;;;;;;18.15;8.38;;;;;;;13.27;88.78;98637.84;5067061;28;20040;-69
2021/10/20 02:27:53;;;;;;;18.27;8.23;;;;;;;13.19;89.21;98629.31;5067018;28;20013;-69
2021/10/20 02:30:19;;;;;;;13.30;7.50;;;;;;;13.17;89.42;98625.81;5066984;28;20082;-69
2021/10/20 02:32:44;;;;;;;15.18;7.60;;;;;;;13.16;89.82;98618.81;5066901;28;20336;-69
2021/10/20 02:35:11;;;;;;;16.00;8.38;;;;;;;13.20;89.55;98616.03;5066867;28;20080;-69
2021/10/20 02:37:37;;;;;;;12.30;7.35;;;;;;;13.27;89.30;98622.00;5054875;28;20025;-69
2021/10/20 02:40:04;;;;;;;12.80;8.05;;;;;;;13.22;89.37;98613.34;5046802;28;20081;-69
2021/10/20 02:42:30;;;;;;;12.82;7.97;;;;;;;13.20;89.55;98609.88;5046733;28;20097;-69
2021/10/20 02:44:55;;;;;;;14.07;8.35;;;;;;;13.42;89.10;98610.97;5046696;28;20025;-69
2021/10/20 02:47:21;;;;;;;22.02;8.88;;;;;;;13.37;89.36;98607.56;5046690;28;20302;-69
2021/10/20 02:49:46;;;;;;;12.40;7.93;;;;;;;13.38;88.97;98601.41;5046607;28;20077;-69
2021/10/20 02:52:12;;;;;;;14.82;8.45;;;;;;;13.37;89.18;98612.88;5046625;28;20025;-69
2021/10/20 02:54:37;;;;;;;14.95;8.48;;;;;;;13.38;89.49;98609.34;5045371;28;20093;-69
2021/10/20 02:57:03;;;;;;;14.02;7.50;;;;;;;13.35;89.63;98610.25;5046424;28;20025;-69
2021/10/20 02:59:28;;;;;;;14.10;8.40;;;;;;;13.30;89.80;98606.91;5046464;28;20024;-69
2021/10/20 03:01:53;;;;;;;15.07;8.02;;;;;;;13.20;90.33;98607.22;5047556;28;20032;-69
2021/10/20 03:04:19;;;;;;;13.63;7.75;;;;;;;13.21;90.24;98601.91;5046277;28;20242;-69
2021/10/20 03:06:44;;;;;;;16.52;8.88;;;;;;;13.25;90.67;98600.03;5046299;28;20083;-69
2021/10/20 03:09:10;;;;;;;14.35;8.65;;;;;;;13.24;90.45;98601.81;5046227;28;20044;-69
2021/10/20 03:11:36;;;;;;;15.07;9.25;;;;;;;13.21;90.58;98601.03;5046252;28;20021;-69
2021/10/20 03:14:01;;;;;;;14.60;8.65;;;;;;;13.19;90.59;98608.16;5046176;28;20216;-69
2021/10/20 03:16:26;;;;;;;16.48;8.70;;;;;;;13.18;90.75;98604.63;5045972;28;20041;-69
2021/10/20 03:18:52;;;;;;;16.35;8.27;;;;;;;13.09;91.37;98606.72;5055282;28;20031;-69
2021/10/20 03:21:17;;;;;;;14.65;8.15;;;;;;;13.19;90.90;98609.00;5064846;28;20100;-69
2021/10/20 03:23:42;;;;;;;17.10;8.63;;;;;;;13.15;90.97;98603.84;5065994;28;20088;-69
2021/10/20 03:26:08;;;;;;;13.63;8.40;;;;;;;13.12;91.23;98599.53;5065483;28;20020;-69
2021/10/20 03:28:33;;;;;;;14.27;7.97;;;;;;;13.04;91.41;98599.75;5065891;28;20213;-69
2021/10/20 03:30:59;;;;;;;15.20;8.75;;;;;;;13.01;91.99;98599.84;5065842;28;20017;-69
2021/10/20 03:33:24;;;;;;;15.55;8.40;;;;;;;12.99;92.00;98601.69;5065810;28;20021;-69
2021/10/20 03:35:50;;;;;;;17.38;8.80;;;;;;;13.13;92.04;98587.19;5065762;28;20383;-69
2021/10/20 03:38:15;;;;;;;18.77;8.75;;;;;;;13.10;92.16;98585.50;5065631;28;20020;-69
2021/10/20 03:40:41;;;;;;;15.52;9.02;;;;;;;13.15;92.06;98577.44;5065657;28;20100;-69
2021/10/20 03:43:07;;;;;;;15.07;9.32;;;;;;;13.18;91.77;98580.84;5065629;28;20024;-69
2021/10/20 03:45:32;;;;;;;14.77;8.73;;;;;;;13.27;91.54;98574.41;5065548;28;20025;-69
2021/10/20 03:47:58;;;;;;;15.82;8.15;;;;;;;13.24;91.67;98575.38;5064979;28;20388;-69
2021/10/20 03:50:23;;;;;;;15.32;8.93;;;;;;;13.29;91.71;98567.31;5065478;28;20096;-69
2021/10/20 03:52:49;;;;;;;12.50;8.60;;;;;;;13.29;91.84;98573.44;5065438;28;20021;-69
2021/10/20 03:55:14;;;;;;;14.70;8.90;;;;;;;13.24;91.92;98577.16;5065337;28;20047;-69
2021/10/20 03:57:40;;;;;;;16.40;9.63;;;;;;;13.21;91.73;98577.25;5064103;28;20312;-69
2021/10/20 04:00:09;;;;;;;13.30;8.23;;;;;;;13.17;92.32;98570.31;5065289;28;20028;-69
2021/10/20 04:02:35;;;;;;;17.50;8.80;;;;;;;13.20;92.44;98572.88;5065159;28;20017;-69
2021/10/20 04:05:00;;;;;;;13.27;8.70;;;;;;;13.21;92.32;98564.03;5064904;28;20021;-69
2021/10/20 04:07:26;;;;;;;17.80;9.15;;;;;;;13.30;92.45;98558.47;5065132;28;20020;-69
2021/10/20 04:09:52;;;;;;;15.30;8.52;;;;;;;13.24;92.57;98556.88;5064837;28;20321;-69
2021/10/20 04:12:17;;;;;;;15.07;8.63;;;;;;;13.23;92.44;98557.81;5064983;28;20024;-69
2021/10/20 04:14:43;;;;;;;16.38;9.57;;;;;;;13.27;92.32;98569.13;5060845;28;20024;-69
2021/10/20 04:17:08;;;;;;;17.75;8.63;;;;;;;13.24;92.96;98563.94;5044765;28;20052;-69
2021/10/20 04:19:34;;;;;;;17.88;9.57;;;;;;;13.37;92.61;98555.56;5044929;28;20025;-69
2021/10/20 04:21:59;;;;;;;16.00;9.10;;;;;;;13.40;92.78;98560.78;5043769;28;20025;-69
2021/10/20 04:24:24;;;;;;;15.93;9.23;;;;;;;13.33;92.49;98553.94;5044871;28;20024;-69
2021/10/20 04:26:50;;;;;;;19.17;8.98;;;;;;;13.36;92.78;98568.84;5044808;28;20017;-69
2021/10/20 04:29:15;;;;;;;15.93;9.43;;;;;;;13.30;93.00;98571.69;5047179;28;20017;-69
2021/10/20 04:31:41;;;;;;;17.55;9.23;;;;;;;13.35;93.27;98562.69;5060889;28;20084;-69
2021/10/20 04:34:06;;;;;;;17.67;9.13;;;;;;;13.32;93.26;98556.66;5050442;28;20021;-69
2021/10/20 04:36:32;;;;;;;16.10;9.00;;;;;;;13.33;93.29;98566.28;5047526;28;20021;-69
2021/10/20 04:38:57;;;;;;;17.35;9.23;;;;;;;13.36;93.39;98547.69;5053498;28;20018;-69
2021/10/20 04:41:23;;;;;;;16.05;8.82;;;;;;;13.31;93.24;98554.91;5053848;28;20096;-69
2021/10/20 04:43:50;;;;;;;16.25;9.27;;;;;;;13.31;93.42;98546.97;5055312;28;20428;-69
2021/10/20 04:46:15;;;;;;;17.88;9.65;;;;;;;13.28;93.19;98540.00;5052021;28;20216;-69
2021/10/20 04:48:41;;;;;;;22.38;9.88;;;;;;;13.27;93.63;98543.56;5064358;28;20040;-69
2021/10/20 04:51:06;;;;;;;15.85;9.73;;;;;;;13.30;93.73;98545.25;5063928;28;20021;-69
2021/10/20 04:53:32;;;;;;;20.10;9.85;;;;;;;13.27;93.64;98537.41;5064280;28;20216;-69
2021/10/20 04:55:58;;;;;;;15.93;8.60;;;;;;;13.26;93.67;98535.69;5064274;28;20316;-69
2021/10/20 04:58:23;;;;;;;17.60;9.57;;;;;;;13.30;93.74;98539.97;5064128;28;20028;-69
2021/10/20 05:00:48;;;;;;;15.45;9.35;;;;;;;13.31;93.70;98537.28;5064134;28;20032;-69
2021/10/20 05:03:14;;;;;;;14.93;9.20;;;;;;;13.30;93.67;98526.75;5064124;28;20309;-69
2021/10/20 05:05:39;;;;;;;16.40;9.25;;;;;;;13.24;94.17;98526.94;5064188;28;20032;-69
2021/10/20 05:08:05;;;;;;;15.07;8.90;;;;;;;13.24;94.09;98522.53;5064086;28;20017;-69
2021/10/20 05:10:30;;;;;;;17.65;9.73;;;;;;;13.18;94.20;98522.72;5064070;28;20059;-69
2021/10/20 05:12:56;;;;;;;14.57;9.55;;;;;;;13.22;94.28;98518.22;5064033;28;20331;-69
2021/10/20 05:15:22;;;;;;;16.80;9.85;;;;;;;13.20;94.36;98504.16;5062825;28;20031;-69
2021/10/20 05:17:48;;;;;;;16.95;9.70;;;;;;;13.15;95.26;98506.06;5062591;28;20041;-69
2021/10/20 05:20:15;;;;;;;15.55;9.63;;;;;;;13.12;94.94;98507.03;5063894;28;20044;-69
2021/10/20 05:22:42;;;;;;;17.27;9.65;;;;;;;13.07;95.22;98501.06;5063948;28;20020;-69
2021/10/20 05:25:09;;;;;;;19.25;10.23;;;;;;;13.14;95.04;98499.06;5063859;28;20024;-69
2021/10/20 05:27:35;;;;;;;16.48;10.55;;;;;;;13.11;95.37;98488.59;5063845;28;20017;-69
2021/10/20 05:30:00;;;;;;;20.10;10.02;;;;;;;13.10;95.14;98486.88;5063816;28;20021;-69
2021/10/20 05:32:27;;;;;;;16.48;10.25;;;;;;;13.14;95.37;98485.84;5063814;28;20025;-69
2021/10/20 05:34:53;;;;;;;16.33;9.55;;;;;;;13.10;95.43;98484.22;5063786;28;20324;-69
2021/10/20 05:37:19;;;;;;;23.05;9.65;;;;;;;13.10;95.70;98489.53;5063687;28;20028;-69
2021/10/20 05:39:45;;;;;;;18.45;10.52;;;;;;;13.17;95.67;98488.41;5063726;28;20050;-69
2021/10/20 05:42:10;;;;;;;14.35;9.27;;;;;;;13.24;95.33;98482.00;5063720;28;20211;-69
2021/10/20 05:44:36;;;;;;;15.98;9.45;;;;;;;13.21;95.33;98484.75;5063679;28;20213;-69
2021/10/20 05:47:01;;;;;;;19.33;9.52;;;;;;;13.17;95.65;98489.28;5063661;28;20363;-69
2021/10/20 05:49:27;;;;;;;16.77;10.00;;;;;;;13.23;95.48;98493.50;5064307;28;20347;-69
2021/10/20 05:51:52;;;;;;;14.43;9.52;;;;;;;13.32;95.91;98493.22;5067720;28;20024;-69
2021/10/20 05:54:17;;;;;;;19.73;10.10;;;;;;;13.45;95.49;98483.97;5067639;28;20029;-69
2021/10/20 05:56:43;;;;;;;18.38;9.80;;;;;;;13.52;95.09;98485.47;5067628;28;20025;-69
2021/10/20 05:59:08;;;;;;;17.08;10.05;;;;;;;13.53;95.14;98487.19;5067572;28;20313;-69
2021/10/20 06:01:34;;;;;;;15.15;9.02;;;;;;;13.63;94.78;98484.19;5066380;28;20032;-69
2021/10/20 06:04:00;;;;;;;13.50;9.05;;;;;;;13.68;94.36;98476.09;5067444;28;20021;-69
2021/10/20 06:06:26;;;;;;;12.88;8.50;;;;;;;13.79;94.32;98473.97;5067457;28;20316;-69
2021/10/20 06:08:52;;;;;;;14.75;8.13;;;;;;;13.91;93.50;98471.75;5067428;28;20021;-69
2021/10/20 06:11:18;;;;;;;19.75;8.85;;;;;;;13.91;93.69;98457.66;5067340;28;20216;-69
2021/10/20 06:13:44;;;;;;;14.13;8.32;;;;;;;13.96;93.84;98461.00;5067324;28;20025;-69
2021/10/20 06:16:10;;;;;;;16.30;9.35;;;;;;;13.99;93.69;98456.44;5067091;28;20060;-69
2021/10/20 06:18:36;;;;;;;15.80;8.35;;;;;;;14.06;93.57;98446.53;5067127;28;20021;-69
2021/10/20 06:21:02;;;;;;;15.57;8.68;;;;;;;14.16;93.63;98442.63;5067154;28;20335;-69
2021/10/20 06:23:28;;;;;;;15.60;8.80;;;;;;;14.16;93.38;98442.63;5067126;28;20024;-69
2021/10/20 06:25:53;;;;;;;15.15;9.57;;;;;;;14.17;93.40;98431.09;5067073;28;20194;-69
2021/10/20 06:28:18;;;;;;;20.45;8.65;;;;;;;14.25;92.77;98415.84;5067037;28;20035;-69
2021/10/20 06:30:44;;;;;;;17.02;8.85;;;;;;;14.36;92.52;98403.06;5067033;28;20221;-69
2021/10/20 06:33:09;;;;;;;13.15;7.65;;;;;;;14.45;92.24;98408.88;5065797;28;20104;-69
2021/10/20 06:35:35;;;;;;;13.20;7.85;;;;;;;14.61;91.83;98419.75;5066916;28;20059;-69
2021/10/20 06:38:00;;;;;;;14.52;8.68;;;;;;;14.69;91.39;98430.91;5066763;28;20358;-69
2021/10/20 06:40:25;;;;;;;22.70;8.63;;;;;;;14.90;90.82;98435.34;5065701;28;20336;-69
2021/10/20 06:42:51;;;;;;;12.13;7.35;;;;;;;14.97;90.85;98444.81;5066784;28;20047;-69
2021/10/20 06:45:16;;;;;;;13.23;7.72;;;;;;;15.01;90.48;98430.50;5066720;28;20020;-69
2021/10/20 06:47:42;;;;;;;15.95;7.65;;;;;;;15.12;90.27;98433.56;5066683;28;20028;-69
2021/10/20 06:50:08;;;;;;;17.00;8.00;;;;;;;15.23;90.02;98431.38;5066624;28;20017;-69
2021/10/20 06:52:34;;;;;;;15.55;7.28;;;;;;;15.29;89.71;98417.84;5066598;28;20221;-69
2021/10/20 06:54:59;;;;;;;15.63;9.43;;;;;;;15.42;88.89;98419.09;5066525;28;20375;-69
2021/10/20 06:57:24;;;;;;;13.05;7.72;;;;;;;15.52;88.85;98411.59;5066445;28;20216;-69
2021/10/20 06:59:50;;;;;;;14.00;7.95;;;;;;;15.55;88.46;98400.88;5066470;28;20021;-69
2021/10/20 07:02:15;;;;;;;17.50;7.70;;;;;;;15.58;88.52;98406.91;5065540;28;20328;-69
2021/10/20 07:04:41;;;;;;;13.80;7.93;;;;;;;15.61;88.56;98398.81;5066390;28;20025;-69
2021/10/20 07:07:10;;;;;;;13.27;7.60;;;;;;;15.67;88.42;98417.13;5066319;28;20032;-69
2021/10/20 07:09:36;;;;;;;14.00;7.35;;;;;;;15.79;87.85;98427.19;5066299;28;20039;-69
2021/10/20 07:12:01;;;;;;;14.00;7.00;;;;;;;15.87;87.68;98410.94;5066241;28;20259;-69
2021/10/20 07:14:27;;;;;;;11.77;7.28;;;;;;;15.88;87.66;98400.25;5066237;28;20062;-70
2021/10/20 07:16:52;;;;;;;13.02;7.43;;;;;;;15.84;87.56;98409.28;5065861;28;20037;-69
2021/10/20 07:19:18;;;;;;;13.05;7.20;;;;;;;15.90;87.70;98408.16;5066078;28;20100;-69
2021/10/20 07:21:43;;;;;;;9.23;6.15;;;;;;;15.92;87.57;98416.94;5066072;28;20088;-69
2021/10/20 07:24:09;;;;;;;10.32;6.75;;;;;;;15.90;87.92;98422.31;5065991;28;20335;-69
2021/10/20 07:26:34;;;;;;;12.73;7.13;;;;;;;15.88;87.77;98424.16;5065963;28;20297;-69
2021/10/20 07:28:59;;;;;;;11.73;6.82;;;;;;;15.86;87.53;98420.72;5065923;28;20021;-69
2021/10/20 07:31:34;;;;;;;13.77;7.35;;;;;;;15.87;87.79;98414.47;5065866;28;20047;-70
2021/10/20 07:34:00;;;;;;;12.73;6.18;;;;;;;16.00;87.58;98409.47;5065877;28;20029;-70
2021/10/20 07:36:26;;;;;;;14.30;6.38;;;;;;;15.99;87.65;98408.63;5064533;28;20021;-70
2021/10/20 07:38:52;;;;;;;14.13;6.47;;;;;;;16.04;87.58;98414.56;5065727;28;20024;-69
2021/10/20 07:41:18;;;;;;;17.35;6.60;;;;;;;16.15;87.37;98414.97;5065683;28;20070;-69
2021/10/20 07:43:43;;;;;;;13.38;6.75;;;;;;;16.19;86.33;98400.63;5065655;28;20025;-69
2021/10/20 07:46:09;;;;;;;20.70;7.93;;;;;;;16.28;86.89;98412.63;5064422;28;20025;-69
2021/10/20 07:48:34;;;;;;;15.88;7.25;;;;;;;16.49;86.20;98409.84;5065513;28;20347;-69
2021/10/20 07:50:59;;;;;;;14.40;6.53;;;;;;;16.75;85.67;98401.56;5065462;28;20025;-69
2021/10/20 07:53:25;;;;;;;10.23;6.07;;;;;;;17.10;84.12;98383.88;5065464;28;20024;-69
2021/10/20 07:55:50;;;;;;;9.27;5.90;;;;;;;17.38;83.34;98392.22;5065414;28;20066;-69
2021/10/20 07:58:16;;;;;;;10.45;6.55;;;;;;;17.59;81.85;98361.88;5064127;28;20021;-69
2021/10/20 08:00:41;;;;;;;13.73;6.03;;;;;;;17.23;82.49;98359.28;5065307;28;20025;-69
2021/10/20 08:03:07;;;;;;;14.48;6.35;;;;;;;17.13;83.28;98343.84;5065190;28;20136;-69
2021/10/20 08:05:32;;;;;;;14.00;6.63;;;;;;;17.11;82.81;98346.56;5065189;28;20052;-69
2021/10/20 08:07:59;;;;;;;16.20;6.35;;;;;;;17.07;83.24;98350.34;5065194;28;20025;-69
2021/10/20 08:10:27;;;;;;;9.98;6.40;;;;;;;17.81;81.67;98353.66;5065098;28;20028;-69
2021/10/20 08:12:55;;;;;;;9.77;5.95;;;;;;;18.75;77.64;98352.88;5063891;28;20028;-69
2021/10/20 08:15:21;;;;;;;11.32;6.80;;;;;;;19.27;75.88;98344.50;5063862;28;20339;-69
2021/10/20 08:17:47;;;;;;;13.13;6.00;;;;;;;18.61;76.43;98342.13;5064789;28;20064;-69
2021/10/20 08:20:19;;;;;;;10.32;5.70;;;;;;;18.02;78.78;98331.19;5064939;28;20239;-69
2021/10/20 08:22:45;;;;;;;9.13;6.03;;;;;;;17.79;80.28;98328.91;5064991;28;20194;-69
2021/10/20 08:25:11;;;;;;;10.68;6.45;;;;;;;17.42;81.23;98329.03;5064863;28;20048;-69
2021/10/20 08:27:38;;;;;;;21.45;6.88;;;;;;;17.34;81.75;98344.56;5064788;28;20012;-69
2021/10/20 08:30:05;;;;;;;11.35;6.38;;;;;;;17.22;82.76;98344.22;5064773;28;20025;-69
2021/10/20 08:32:31;;;;;;;11.98;6.13;;;;;;;17.15;82.64;98353.47;5063496;28;20047;-69
2021/10/20 08:34:56;;;;;;;10.85;6.20;;;;;;;17.14;83.16;98334.91;5064671;28;20021;-69
2021/10/20 08:37:22;;;;;;;11.43;5.72;;;;;;;17.16;83.71;98338.38;5064525;28;20017;-69
2021/10/20 08:39:47;;;;;;;8.18;6.05;;;;;;;17.15;83.64;98348.13;5064563;28;20021;-69
2021/10/20 08:42:13;;;;;;;11.55;6.78;;;;;;;17.12;83.43;98326.19;5064525;28;20045;-69
2021/10/20 08:44:39;;;;;;;9.40;6.20;;;;;;;17.17;83.35;98335.63;5063340;28;20031;-69
2021/10/20 08:47:05;;;;;;;13.23;6.80;;;;;;;17.24;83.57;98330.84;5064429;28;20039;-69
2021/10/20 08:49:31;;;;;;;10.32;6.05;;;;;;;17.20;83.27;98330.16;5064366;28;20023;-69
2021/10/20 08:51:57;;;;;;;10.85;5.97;;;;;;;17.22;83.06;98344.22;5064352;28;20020;-69
2021/10/20 08:54:22;;;;;;;11.20;6.10;;;;;;;17.31;83.21;98345.59;5064309;28;20074;-69
2021/10/20 08:56:48;;;;;;;11.65;6.28;;;;;;;17.39;82.85;98334.53;5064175;28;20044;-69
2021/10/20 08:59:15;;;;;;;11.20;6.80;;;;;;;17.46;82.57;98343.97;5063103;28;20025;-69
2021/10/20 09:01:42;;;;;;;9.63;6.68;;;;;;;17.42;82.88;98329.03;5064255;28;20070;-69
2021/10/20 09:04:09;;;;;;;8.73;6.22;;;;;;;17.38;82.62;98327.50;5064078;28;20339;-69
2021/10/20 09:06:35;;;;;;;10.05;6.35;;;;;;;17.45;82.44;98319.16;5064125;28;20055;-69
2021/10/20 09:09:06;;;;;;;12.98;6.88;;;;;;;17.41;83.13;98322.03;5064083;28;20020;-69
2021/10/20 09:11:32;;;;;;;11.90;6.27;;;;;;;17.43;83.04;98325.50;5064141;28;20027;-69
2021/10/20 09:14:06;;;;;;;10.43;6.13;;;;;;;17.57;82.85;98322.97;5064058;28;20581;-69
2021/10/20 09:16:33;;;;;;;21.80;6.00;;;;;;;17.99;82.15;98323.38;5063791;28;20044;-69
2021/10/20 09:19:09;;;;;;;18.13;6.28;;;;;;;18.07;81.07;98313.16;5063937;28;20017;-69
2021/10/20 09:21:47;;;;;;;11.27;5.88;;;;;;;18.22;80.63;98307.84;5063967;28;20247;-69
2021/10/20 09:24:12;;;;;;;9.52;5.80;;;;;;;18.61;79.06;98311.00;5063478;28;20021;-69
2021/10/20 09:26:37;;;;;;;11.35;5.38;;;;;;;18.90;77.81;98301.34;5063874;28;20128;-69
2021/10/20 09:29:17;;;;;;;12.80;5.82;;;;;;;19.32;76.47;98298.84;5063881;28;20017;-69
2021/10/20 09:31:46;;;;;;;9.05;5.07;;;;;;;19.56;76.25;98308.06;5063843;28;20021;-69
2021/10/20 09:34:11;;;;;;;8.93;5.45;;;;;;;19.42;76.49;98299.19;5063776;28;20029;-69
2021/10/20 09:36:37;;;;;;;10.57;5.30;;;;;;;19.30;77.36;98300.75;5063685;28;20198;-69
2021/10/20 09:39:03;;;;;;;8.43;4.90;;;;;;;19.19;77.03;98298.69;5063712;28;20321;-69
2021/10/20 09:41:28;;;;;;;9.95;5.88;;;;;;;18.96;77.21;98296.50;5063707;28;20024;-69
2021/10/20 09:43:56;;;;;;;14.82;5.78;;;;;;;18.92;76.77;98273.63;5063761;28;20028;-69
2021/10/20 09:46:38;;;;;;;10.38;5.63;;;;;;;18.91;77.35;98287.06;5063653;28;20368;-69
2021/10/20 09:49:23;;;;;;;11.30;5.55;;;;;;;18.78;77.86;98275.38;5063656;28;20206;-69
2021/10/20 09:51:57;;;;;;;8.88;5.53;;;;;;;18.77;77.62;98295.00;5063695;28;20025;-69
2021/10/20 09:54:27;;;;;;;8.85;5.35;;;;;;;18.74;78.28;98289.84;5063711;28;20034;-69
2021/10/20 09:57:00;;;;;;;11.13;5.60;;;;;;;18.52;78.44;98322.19;5063556;28;20048;-69
2021/10/20 09:59:27;;;;;;;9.52;5.30;;;;;;;18.35;78.62;98297.41;5064229;28;20016;-69
2021/10/20 10:01:53;;;;;;;11.55;5.65;;;;;;;18.28;79.38;98291.53;5063529;28;20312;-69
2021/10/20 10:04:18;;;;;;;9.85;5.45;;;;;;;18.16;79.59;98286.03;5063445;28;20028;-69
2021/10/20 10:06:45;;;;;;;14.95;5.82;;;;;;;18.12;80.32;98285.34;5063483;28;20386;-69
2021/10/20 10:09:11;;;;;;;11.02;5.65;;;;;;;18.30;80.28;98283.47;5063428;28;20305;-69
2021/10/20 10:11:40;;;;;;;9.23;5.25;;;;;;;18.39;80.29;98269.66;5063430;28;20197;-69
2021/10/20 10:14:08;;;;;;;11.27;5.75;;;;;;;18.53;80.26;98264.41;5063414;28;20024;-69
2021/10/20 10:16:37;;;;;;;8.95;5.38;;;;;;;18.76;78.29;98282.59;5063210;28;20040;-69
2021/10/20 10:19:04;;;;;;;15.35;6.03;;;;;;;18.80;78.59;98258.34;5063353;28;20036;-69
2021/10/20 10:21:29;;;;;;;12.23;5.53;;;;;;;18.81;78.94;98259.19;5063353;28;20111;-69
2021/10/20 10:23:57;;;;;;;10.65;5.22;;;;;;;18.85;77.95;98244.72;5063328;28;20033;-69
2021/10/20 10:26:23;;;;;;;11.18;5.10;;;;;;;18.88;78.15;98257.88;5062237;28;20088;-69
2021/10/20 10:29:09;;;;;;;11.35;5.13;;;;;;;18.84;77.13;98249.22;5063252;28;20012;-69
2021/10/20 10:31:37;;;;;;;12.02;5.18;;;;;;;18.76;78.50;98250.59;5063299;28;20368;-69
2021/10/20 10:34:03;;;;;;;10.40;5.30;;;;;;;18.65;78.01;98258.38;5063503;28;20165;-69
2021/10/20 10:36:29;;;;;;;22.17;5.57;;;;;;;18.46;78.66;98242.59;5063792;28;20084;-69
2021/10/20 10:39:00;;;;;;;9.63;5.57;;;;;;;18.25;78.64;98249.06;5066873;28;20032;-69
2021/10/20 10:41:42;;;;;;;10.60;5.13;;;;;;;18.08;79.62;98248.28;5066895;28;20220;-69
2021/10/20 10:44:08;;;;;;;11.18;5.25;;;;;;;18.10;79.30;98246.41;5067087;28;20296;-69
2021/10/20 10:46:34;;;;;;;9.93;5.38;;;;;;;18.06;80.63;98243.06;5066756;28;20343;-69
2021/10/20 10:49:02;;;;;;;12.40;5.32;;;;;;;18.04;80.98;98238.75;5066694;28;20052;-69
2021/10/20 10:51:28;;;;;;;9.40;5.05;;;;;;;18.04;80.71;98239.63;5066672;28;20024;-69
2021/10/20 10:53:55;;;;;;;9.57;5.43;;;;;;;18.11;80.65;98246.34;5066592;28;20028;-69
2021/10/20 10:56:22;;;;;;;10.70;4.85;;;;;;;18.07;79.90;98235.94;5066519;28;20080;-69
2021/10/20 10:59:03;;;;;;;10.82;5.53;;;;;;;18.05;79.51;98230.69;5066471;28;20321;-69
2021/10/20 11:01:40;;;;;;;10.63;5.55;;;;;;;18.09;79.66;98221.56;5066487;28;20024;-69
2021/10/20 11:04:15;;;;;;;10.15;5.85;;;;;;;18.16;79.66;98211.44;5066379;28;20092;-69
2021/10/20 11:06:41;;;;;;;15.07;5.43;;;;;;;18.16;79.06;98200.81;5066377;28;20021;-69
2021/10/20 11:09:07;;;;;;;11.07;5.28;;;;;;;18.01;79.94;98206.97;5066325;28;20017;-69
2021/10/20 11:11:33;;;;;;;11.13;5.50;;;;;;;17.94;80.15;98221.59;5066278;28;20083;-69
2021/10/20 11:14:01;;;;;;;9.65;5.07;;;;;;;17.92;79.81;98224.31;5066228;28;20254;-69
2021/10/20 11:16:26;;;;;;;10.35;5.95;;;;;;;17.93;80.77;98219.84;5065988;28;20236;-69
2021/10/20 11:18:56;;;;;;;12.88;6.25;;;;;;;17.87;80.68;98220.22;5066093;28;20055;-69
2021/10/20 11:21:23;;;;;;;9.15;5.55;;;;;;;17.88;80.56;98203.28;5066034;28;20024;-69
2021/10/20 11:23:49;;;;;;;9.50;5.03;;;;;;;17.93;80.63;98203.88;5066097;28;20028;-69